sensor_id;sensor_type;location;lat;lon;timestamp;P1;durP1;ratioP1;P2;durP2;ratioP2
54679;SDS011;40578;53.178;5.846;2022-09-09T00:01:00;24.13;;;14.07;;
54679;SDS011;40578;53.178;5.846;2022-09-09T00:03:53;19.58;;;14.90;;
54679;SDS011;40578;53.178;5.846;2022-09-09T00:06:32;20.08;;;15.02;;
54679;SDS011;40578;53.178;5.846;2022-09-09T00:09:11;19.23;;;13.70;;
54679;SDS011;40578;53.178;5.846;2022-09-09T00:14:54;24.50;;;14.90;;
54679;SDS011;40578;53.178;5.846;2022-09-09T00:17:47;19.63;;;14.43;;
54679;SDS011;40578;53.178;5.846;2022-09-09T00:28:27;22.27;;;14.65;;
54679;SDS011;40578;53.178;5.846;2022-09-09T00:30:59;19.55;;;14.80;;
54679;SDS011;40578;53.178;5.846;2022-09-09T00:33:32;23.15;;;14.45;;
54679;SDS011;40578;53.178;5.846;2022-09-09T00:35:59;24.85;;;15.77;;
54679;SDS011;40578;53.178;5.846;2022-09-09T00:41:04;22.75;;;15.00;;
54679;SDS011;40578;53.178;5.846;2022-09-09T00:43:34;22.13;;;15.05;;
54679;SDS011;40578;53.178;5.846;2022-09-09T00:46:23;22.58;;;15.68;;
54679;SDS011;40578;53.178;5.846;2022-09-09T00:54:48;22.23;;;15.25;;
54679;SDS011;40578;53.178;5.846;2022-09-09T00:57:29;24.77;;;16.55;;
54679;SDS011;40578;53.178;5.846;2022-09-09T01:12:17;28.10;;;16.08;;
54679;SDS011;40578;53.178;5.846;2022-09-09T01:14:38;19.20;;;14.55;;
54679;SDS011;40578;53.178;5.846;2022-09-09T01:22:50;17.98;;;13.52;;
54679;SDS011;40578;53.178;5.846;2022-09-09T01:27:54;20.93;;;15.37;;
54679;SDS011;40578;53.178;5.846;2022-09-09T01:30:23;20.55;;;13.70;;
54679;SDS011;40578;53.178;5.846;2022-09-09T01:32:52;21.45;;;15.00;;
54679;SDS011;40578;53.178;5.846;2022-09-09T01:35:29;24.38;;;15.30;;
54679;SDS011;40578;53.178;5.846;2022-09-09T01:38:10;17.27;;;13.95;;
54679;SDS011;40578;53.178;5.846;2022-09-09T01:40:38;22.38;;;13.90;;
54679;SDS011;40578;53.178;5.846;2022-09-09T01:43:04;21.17;;;14.38;;
54679;SDS011;40578;53.178;5.846;2022-09-09T01:45:31;20.88;;;14.73;;
54679;SDS011;40578;53.178;5.846;2022-09-09T01:47:57;18.80;;;14.17;;
54679;SDS011;40578;53.178;5.846;2022-09-09T01:52:50;23.48;;;14.90;;
54679;SDS011;40578;53.178;5.846;2022-09-09T01:55:20;21.52;;;15.10;;
54679;SDS011;40578;53.178;5.846;2022-09-09T02:01:02;21.27;;;14.95;;
54679;SDS011;40578;53.178;5.846;2022-09-09T02:03:34;20.25;;;15.02;;
54679;SDS011;40578;53.178;5.846;2022-09-09T02:08:48;23.30;;;15.23;;
54679;SDS011;40578;53.178;5.846;2022-09-09T02:11:16;22.52;;;14.57;;
54679;SDS011;40578;53.178;5.846;2022-09-09T02:13:45;22.52;;;14.68;;
54679;SDS011;40578;53.178;5.846;2022-09-09T02:19:23;23.42;;;14.77;;
54679;SDS011;40578;53.178;5.846;2022-09-09T02:21:54;24.77;;;15.00;;
54679;SDS011;40578;53.178;5.846;2022-09-09T02:24:22;28.27;;;14.57;;
54679;SDS011;40578;53.178;5.846;2022-09-09T02:26:49;25.67;;;15.33;;
54679;SDS011;40578;53.178;5.846;2022-09-09T02:29:23;21.60;;;15.18;;
54679;SDS011;40578;53.178;5.846;2022-09-09T02:31:54;22.50;;;15.05;;
54679;SDS011;40578;53.178;5.846;2022-09-09T02:34:23;17.67;;;13.30;;
54679;SDS011;40578;53.178;5.846;2022-09-09T02:36:49;23.55;;;13.95;;
54679;SDS011;40578;53.178;5.846;2022-09-09T02:39:17;22.55;;;15.02;;
54679;SDS011;40578;53.178;5.846;2022-09-09T02:41:43;21.95;;;14.80;;
54679;SDS011;40578;53.178;5.846;2022-09-09T02:44:16;21.23;;;14.53;;
54679;SDS011;40578;53.178;5.846;2022-09-09T02:52:07;21.60;;;14.32;;
54679;SDS011;40578;53.178;5.846;2022-09-09T02:54:40;24.30;;;15.07;;
54679;SDS011;40578;53.178;5.846;2022-09-09T02:59:48;21.23;;;14.63;;
54679;SDS011;40578;53.178;5.846;2022-09-09T03:02:17;25.00;;;15.10;;
54679;SDS011;40578;53.178;5.846;2022-09-09T03:04:44;22.45;;;15.05;;
54679;SDS011;40578;53.178;5.846;2022-09-09T03:07:10;26.95;;;16.08;;
54679;SDS011;40578;53.178;5.846;2022-09-09T03:09:37;22.85;;;15.07;;
54679;SDS011;40578;53.178;5.846;2022-09-09T03:12:02;22.73;;;14.80;;
54679;SDS011;40578;53.178;5.846;2022-09-09T03:14:32;21.92;;;14.35;;
54679;SDS011;40578;53.178;5.846;2022-09-09T03:16:57;24.57;;;14.27;;
54679;SDS011;40578;53.178;5.846;2022-09-09T03:19:26;23.50;;;14.85;;
54679;SDS011;40578;53.178;5.846;2022-09-09T03:21:52;25.20;;;14.55;;
54679;SDS011;40578;53.178;5.846;2022-09-09T03:24:19;23.60;;;14.82;;
54679;SDS011;40578;53.178;5.846;2022-09-09T03:26:45;24.73;;;14.37;;
54679;SDS011;40578;53.178;5.846;2022-09-09T03:29:14;24.77;;;14.37;;
54679;SDS011;40578;53.178;5.846;2022-09-09T03:31:39;22.60;;;14.50;;
54679;SDS011;40578;53.178;5.846;2022-09-09T03:34:06;29.38;;;14.75;;
54679;SDS011;40578;53.178;5.846;2022-09-09T03:36:32;19.13;;;13.65;;
54679;SDS011;40578;53.178;5.846;2022-09-09T03:38:58;26.17;;;14.20;;
54679;SDS011;40578;53.178;5.846;2022-09-09T03:41:24;21.08;;;13.95;;
54679;SDS011;40578;53.178;5.846;2022-09-09T03:46:21;26.15;;;14.40;;
54679;SDS011;40578;53.178;5.846;2022-09-09T03:48:48;21.70;;;14.23;;
54679;SDS011;40578;53.178;5.846;2022-09-09T03:51:14;23.07;;;13.47;;
54679;SDS011;40578;53.178;5.846;2022-09-09T03:53:40;20.77;;;12.93;;
54679;SDS011;40578;53.178;5.846;2022-09-09T03:56:06;19.20;;;12.87;;
54679;SDS011;40578;53.178;5.846;2022-09-09T03:58:36;19.35;;;12.52;;
54679;SDS011;40578;53.178;5.846;2022-09-09T04:01:03;19.75;;;13.20;;
54679;SDS011;40578;53.178;5.846;2022-09-09T04:03:30;24.27;;;12.98;;
54679;SDS011;40578;53.178;5.846;2022-09-09T04:05:58;18.77;;;12.27;;
54679;SDS011;40578;53.178;5.846;2022-09-09T04:08:25;22.80;;;12.38;;
54679;SDS011;40578;53.178;5.846;2022-09-09T04:10:51;23.10;;;12.52;;
54679;SDS011;40578;53.178;5.846;2022-09-09T04:13:17;22.23;;;12.13;;
54679;SDS011;40578;53.178;5.846;2022-09-09T04:15:50;16.60;;;11.35;;
54679;SDS011;40578;53.178;5.846;2022-09-09T04:18:17;22.50;;;11.70;;
54679;SDS011;40578;53.178;5.846;2022-09-09T04:20:45;15.85;;;10.88;;
54679;SDS011;40578;53.178;5.846;2022-09-09T04:23:15;17.30;;;10.43;;
54679;SDS011;40578;53.178;5.846;2022-09-09T04:25:45;16.45;;;10.90;;
54679;SDS011;40578;53.178;5.846;2022-09-09T04:28:16;18.08;;;10.77;;
54679;SDS011;40578;53.178;5.846;2022-09-09T04:30:43;16.75;;;11.43;;
54679;SDS011;40578;53.178;5.846;2022-09-09T04:33:09;19.83;;;12.48;;
54679;SDS011;40578;53.178;5.846;2022-09-09T04:35:35;21.42;;;12.02;;
54679;SDS011;40578;53.178;5.846;2022-09-09T04:38:03;23.30;;;12.10;;
54679;SDS011;40578;53.178;5.846;2022-09-09T04:40:30;21.80;;;12.13;;
54679;SDS011;40578;53.178;5.846;2022-09-09T04:43:00;23.20;;;11.93;;
54679;SDS011;40578;53.178;5.846;2022-09-09T04:45:28;23.27;;;12.35;;
54679;SDS011;40578;53.178;5.846;2022-09-09T04:47:53;23.30;;;12.10;;
54679;SDS011;40578;53.178;5.846;2022-09-09T04:50:20;24.33;;;11.82;;
54679;SDS011;40578;53.178;5.846;2022-09-09T04:52:46;22.80;;;12.10;;
54679;SDS011;40578;53.178;5.846;2022-09-09T04:55:12;19.33;;;11.27;;
54679;SDS011;40578;53.178;5.846;2022-09-09T04:57:38;19.52;;;11.57;;
54679;SDS011;40578;53.178;5.846;2022-09-09T05:00:04;20.40;;;12.52;;
54679;SDS011;40578;53.178;5.846;2022-09-09T05:02:31;23.42;;;12.40;;
54679;SDS011;40578;53.178;5.846;2022-09-09T05:04:57;21.33;;;11.13;;
54679;SDS011;40578;53.178;5.846;2022-09-09T05:07:23;20.00;;;10.77;;
54679;SDS011;40578;53.178;5.846;2022-09-09T05:09:51;23.35;;;11.85;;
54679;SDS011;40578;53.178;5.846;2022-09-09T05:12:17;20.93;;;11.43;;
54679;SDS011;40578;53.178;5.846;2022-09-09T05:14:43;22.10;;;10.50;;
54679;SDS011;40578;53.178;5.846;2022-09-09T05:17:08;18.63;;;10.38;;
54679;SDS011;40578;53.178;5.846;2022-09-09T05:19:34;17.55;;;10.63;;
54679;SDS011;40578;53.178;5.846;2022-09-09T05:22:00;20.80;;;11.80;;
54679;SDS011;40578;53.178;5.846;2022-09-09T05:24:26;17.73;;;11.47;;
54679;SDS011;40578;53.178;5.846;2022-09-09T05:26:52;24.00;;;12.88;;
54679;SDS011;40578;53.178;5.846;2022-09-09T05:29:17;22.93;;;12.90;;
54679;SDS011;40578;53.178;5.846;2022-09-09T05:31:48;25.00;;;13.02;;
54679;SDS011;40578;53.178;5.846;2022-09-09T05:34:13;23.70;;;12.60;;
54679;SDS011;40578;53.178;5.846;2022-09-09T05:36:39;23.70;;;13.07;;
54679;SDS011;40578;53.178;5.846;2022-09-09T05:39:04;26.43;;;13.83;;
54679;SDS011;40578;53.178;5.846;2022-09-09T05:41:30;25.43;;;13.57;;
54679;SDS011;40578;53.178;5.846;2022-09-09T05:43:56;25.95;;;15.60;;
54679;SDS011;40578;53.178;5.846;2022-09-09T05:46:24;27.48;;;14.23;;
54679;SDS011;40578;53.178;5.846;2022-09-09T05:48:51;23.75;;;14.00;;
54679;SDS011;40578;53.178;5.846;2022-09-09T05:51:27;26.20;;;14.48;;
54679;SDS011;40578;53.178;5.846;2022-09-09T05:53:55;25.45;;;14.50;;
54679;SDS011;40578;53.178;5.846;2022-09-09T05:56:24;23.00;;;14.20;;
54679;SDS011;40578;53.178;5.846;2022-09-09T05:58:54;28.23;;;15.18;;
54679;SDS011;40578;53.178;5.846;2022-09-09T06:01:21;25.23;;;14.40;;
54679;SDS011;40578;53.178;5.846;2022-09-09T06:06:14;25.67;;;15.15;;
54679;SDS011;40578;53.178;5.846;2022-09-09T06:08:42;28.95;;;16.17;;
54679;SDS011;40578;53.178;5.846;2022-09-09T06:11:19;27.05;;;16.33;;
54679;SDS011;40578;53.178;5.846;2022-09-09T06:13:46;28.13;;;16.33;;
54679;SDS011;40578;53.178;5.846;2022-09-09T06:16:13;30.02;;;17.05;;
54679;SDS011;40578;53.178;5.846;2022-09-09T06:18:43;28.27;;;16.10;;
54679;SDS011;40578;53.178;5.846;2022-09-09T06:21:16;31.33;;;16.45;;
54679;SDS011;40578;53.178;5.846;2022-09-09T06:23:49;29.77;;;17.60;;
54679;SDS011;40578;53.178;5.846;2022-09-09T06:26:20;29.05;;;16.80;;
54679;SDS011;40578;53.178;5.846;2022-09-09T06:28:51;24.70;;;16.17;;
54679;SDS011;40578;53.178;5.846;2022-09-09T06:31:19;25.88;;;16.85;;
54679;SDS011;40578;53.178;5.846;2022-09-09T06:33:49;29.92;;;17.75;;
54679;SDS011;40578;53.178;5.846;2022-09-09T06:36:17;32.70;;;17.63;;
54679;SDS011;40578;53.178;5.846;2022-09-09T06:38:47;24.92;;;16.20;;
54679;SDS011;40578;53.178;5.846;2022-09-09T06:41:13;26.10;;;17.00;;
54679;SDS011;40578;53.178;5.846;2022-09-09T06:43:41;30.15;;;16.63;;
54679;SDS011;40578;53.178;5.846;2022-09-09T06:46:09;26.20;;;15.18;;
54679;SDS011;40578;53.178;5.846;2022-09-09T06:48:40;27.67;;;16.15;;
54679;SDS011;40578;53.178;5.846;2022-09-09T06:51:08;26.25;;;16.45;;
54679;SDS011;40578;53.178;5.846;2022-09-09T06:53:40;26.17;;;15.60;;
54679;SDS011;40578;53.178;5.846;2022-09-09T06:58:36;25.27;;;15.05;;
54679;SDS011;40578;53.178;5.846;2022-09-09T07:01:06;26.63;;;14.93;;
54679;SDS011;40578;53.178;5.846;2022-09-09T07:03:32;24.15;;;14.52;;
54679;SDS011;40578;53.178;5.846;2022-09-09T07:06:01;24.67;;;14.05;;
54679;SDS011;40578;53.178;5.846;2022-09-09T07:08:27;26.53;;;14.43;;
54679;SDS011;40578;53.178;5.846;2022-09-09T07:10:53;22.67;;;14.43;;
54679;SDS011;40578;53.178;5.846;2022-09-09T07:13:23;23.03;;;14.20;;
54679;SDS011;40578;53.178;5.846;2022-09-09T07:15:50;25.55;;;14.88;;
54679;SDS011;40578;53.178;5.846;2022-09-09T07:18:16;24.63;;;15.10;;
54679;SDS011;40578;53.178;5.846;2022-09-09T07:20:42;24.00;;;13.70;;
54679;SDS011;40578;53.178;5.846;2022-09-09T07:23:08;22.20;;;13.87;;
54679;SDS011;40578;53.178;5.846;2022-09-09T07:25:34;20.80;;;12.90;;
54679;SDS011;40578;53.178;5.846;2022-09-09T07:27:59;26.47;;;12.87;;
54679;SDS011;40578;53.178;5.846;2022-09-09T07:30:26;22.00;;;13.63;;
54679;SDS011;40578;53.178;5.846;2022-09-09T07:32:51;21.80;;;12.95;;
54679;SDS011;40578;53.178;5.846;2022-09-09T07:35:17;20.77;;;12.90;;
54679;SDS011;40578;53.178;5.846;2022-09-09T07:37:43;23.10;;;12.77;;
54679;SDS011;40578;53.178;5.846;2022-09-09T07:42:35;21.58;;;12.93;;
54679;SDS011;40578;53.178;5.846;2022-09-09T07:45:03;20.17;;;12.65;;
54679;SDS011;40578;53.178;5.846;2022-09-09T07:47:37;18.80;;;12.73;;
54679;SDS011;40578;53.178;5.846;2022-09-09T07:50:03;22.37;;;13.07;;
54679;SDS011;40578;53.178;5.846;2022-09-09T07:52:29;19.08;;;12.32;;
54679;SDS011;40578;53.178;5.846;2022-09-09T07:54:55;19.87;;;12.17;;
54679;SDS011;40578;53.178;5.846;2022-09-09T07:57:22;18.73;;;11.88;;
54679;SDS011;40578;53.178;5.846;2022-09-09T07:59:48;16.00;;;11.07;;
54679;SDS011;40578;53.178;5.846;2022-09-09T08:02:13;19.30;;;11.23;;
54679;SDS011;40578;53.178;5.846;2022-09-09T08:04:39;18.27;;;10.70;;
54679;SDS011;40578;53.178;5.846;2022-09-09T08:07:05;17.57;;;11.20;;
54679;SDS011;40578;53.178;5.846;2022-09-09T08:09:30;16.83;;;10.53;;
54679;SDS011;40578;53.178;5.846;2022-09-09T08:14:23;16.25;;;11.23;;
54679;SDS011;40578;53.178;5.846;2022-09-09T08:16:50;17.58;;;10.68;;
54679;SDS011;40578;53.178;5.846;2022-09-09T08:19:18;16.00;;;10.20;;
54679;SDS011;40578;53.178;5.846;2022-09-09T08:21:44;18.67;;;11.63;;
54679;SDS011;40578;53.178;5.846;2022-09-09T08:24:10;15.93;;;11.20;;
54679;SDS011;40578;53.178;5.846;2022-09-09T08:26:40;16.92;;;10.80;;
54679;SDS011;40578;53.178;5.846;2022-09-09T08:29:08;15.02;;;10.80;;
54679;SDS011;40578;53.178;5.846;2022-09-09T08:31:39;17.83;;;10.75;;
54679;SDS011;40578;53.178;5.846;2022-09-09T08:34:07;15.45;;;10.63;;
54679;SDS011;40578;53.178;5.846;2022-09-09T08:39:05;15.60;;;10.40;;
54679;SDS011;40578;53.178;5.846;2022-09-09T08:50:01;16.58;;;10.55;;
54679;SDS011;40578;53.178;5.846;2022-09-09T08:55:33;14.15;;;10.35;;
54679;SDS011;40578;53.178;5.846;2022-09-09T08:58:17;16.05;;;10.68;;
54679;SDS011;40578;53.178;5.846;2022-09-09T09:11:47;12.13;;;6.85;;
54679;SDS011;40578;53.178;5.846;2022-09-09T09:14:22;13.23;;;6.75;;
54679;SDS011;40578;53.178;5.846;2022-09-09T09:19:28;11.52;;;6.35;;
54679;SDS011;40578;53.178;5.846;2022-09-09T09:22:06;10.45;;;6.57;;
54679;SDS011;40578;53.178;5.846;2022-09-09T09:24:51;12.10;;;7.20;;
54679;SDS011;40578;53.178;5.846;2022-09-09T09:29:50;10.82;;;6.50;;
54679;SDS011;40578;53.178;5.846;2022-09-09T09:32:21;11.50;;;5.88;;
54679;SDS011;40578;53.178;5.846;2022-09-09T09:34:56;12.25;;;6.38;;
54679;SDS011;40578;53.178;5.846;2022-09-09T09:37:26;10.85;;;6.07;;
54679;SDS011;40578;53.178;5.846;2022-09-09T09:39:54;8.95;;;6.15;;
54679;SDS011;40578;53.178;5.846;2022-09-09T09:42:20;14.43;;;6.33;;
54679;SDS011;40578;53.178;5.846;2022-09-09T09:44:46;8.98;;;6.00;;
54679;SDS011;40578;53.178;5.846;2022-09-09T09:47:13;11.97;;;5.30;;
54679;SDS011;40578;53.178;5.846;2022-09-09T09:52:25;10.98;;;4.97;;
54679;SDS011;40578;53.178;5.846;2022-09-09T09:54:53;10.35;;;4.38;;
54679;SDS011;40578;53.178;5.846;2022-09-09T09:57:27;6.25;;;4.18;;
54679;SDS011;40578;53.178;5.846;2022-09-09T10:02:42;10.20;;;4.38;;
54679;SDS011;40578;53.178;5.846;2022-09-09T10:05:16;12.20;;;4.30;;
54679;SDS011;40578;53.178;5.846;2022-09-09T10:07:47;8.88;;;3.88;;
54679;SDS011;40578;53.178;5.846;2022-09-09T10:10:27;8.95;;;3.65;;
54679;SDS011;40578;53.178;5.846;2022-09-09T10:13:29;8.70;;;3.00;;
54679;SDS011;40578;53.178;5.846;2022-09-09T10:30:21;5.63;;;2.50;;
54679;SDS011;40578;53.178;5.846;2022-09-09T10:35:34;7.80;;;3.05;;
54679;SDS011;40578;53.178;5.846;2022-09-09T10:41:10;5.97;;;2.50;;
54679;SDS011;40578;53.178;5.846;2022-09-09T10:43:51;10.00;;;2.65;;
54679;SDS011;40578;53.178;5.846;2022-09-09T10:46:42;9.82;;;3.10;;
54679;SDS011;40578;53.178;5.846;2022-09-09T10:52:11;10.65;;;2.63;;
54679;SDS011;40578;53.178;5.846;2022-09-09T10:55:40;8.60;;;2.50;;
54679;SDS011;40578;53.178;5.846;2022-09-09T10:57:40;7.93;;;2.17;;
54679;SDS011;40578;53.178;5.846;2022-09-09T11:00:20;6.85;;;2.30;;
54679;SDS011;40578;53.178;5.846;2022-09-09T11:02:49;9.35;;;2.50;;
54679;SDS011;40578;53.178;5.846;2022-09-09T11:05:26;10.25;;;2.45;;
54679;SDS011;40578;53.178;5.846;2022-09-09T11:07:59;8.95;;;2.17;;
54679;SDS011;40578;53.178;5.846;2022-09-09T11:10:43;5.25;;;2.17;;
54679;SDS011;40578;53.178;5.846;2022-09-09T11:13:26;4.82;;;2.30;;
54679;SDS011;40578;53.178;5.846;2022-09-09T11:16:05;7.30;;;2.42;;
54679;SDS011;40578;53.178;5.846;2022-09-09T11:18:36;7.68;;;2.45;;
54679;SDS011;40578;53.178;5.846;2022-09-09T11:21:07;7.00;;;2.28;;
54679;SDS011;40578;53.178;5.846;2022-09-09T11:23:40;12.73;;;2.35;;
54679;SDS011;40578;53.178;5.846;2022-09-09T11:26:15;4.38;;;1.98;;
54679;SDS011;40578;53.178;5.846;2022-09-09T11:28:54;8.50;;;2.53;;
54679;SDS011;40578;53.178;5.846;2022-09-09T11:31:46;8.48;;;2.13;;
54679;SDS011;40578;53.178;5.846;2022-09-09T11:37:01;7.72;;;2.20;;
54679;SDS011;40578;53.178;5.846;2022-09-09T11:42:24;5.72;;;2.00;;
54679;SDS011;40578;53.178;5.846;2022-09-09T11:44:50;8.00;;;2.57;;
54679;SDS011;40578;53.178;5.846;2022-09-09T11:47:19;6.75;;;2.35;;
54679;SDS011;40578;53.178;5.846;2022-09-09T11:49:55;5.82;;;2.20;;
54679;SDS011;40578;53.178;5.846;2022-09-09T11:52:38;7.97;;;2.65;;
54679;SDS011;40578;53.178;5.846;2022-09-09T11:55:59;8.60;;;2.53;;
54679;SDS011;40578;53.178;5.846;2022-09-09T11:58:02;7.03;;;2.22;;
54679;SDS011;40578;53.178;5.846;2022-09-09T12:00:40;6.68;;;2.33;;
54679;SDS011;40578;53.178;5.846;2022-09-09T12:06:11;5.72;;;2.38;;
54679;SDS011;40578;53.178;5.846;2022-09-09T12:08:52;9.63;;;2.55;;
54679;SDS011;40578;53.178;5.846;2022-09-09T12:11:26;6.97;;;2.03;;
54679;SDS011;40578;53.178;5.846;2022-09-09T12:13:58;6.65;;;2.40;;
54679;SDS011;40578;53.178;5.846;2022-09-09T12:16:38;7.10;;;2.40;;
54679;SDS011;40578;53.178;5.846;2022-09-09T12:19:16;8.85;;;2.70;;
54679;SDS011;40578;53.178;5.846;2022-09-09T12:22:00;7.72;;;2.38;;
54679;SDS011;40578;53.178;5.846;2022-09-09T12:24:34;7.93;;;3.03;;
54679;SDS011;40578;53.178;5.846;2022-09-09T12:27:24;8.77;;;3.00;;
54679;SDS011;40578;53.178;5.846;2022-09-09T12:30:09;7.07;;;2.70;;
54679;SDS011;40578;53.178;5.846;2022-09-09T12:32:37;8.15;;;2.45;;
54679;SDS011;40578;53.178;5.846;2022-09-09T12:35:04;6.72;;;2.60;;
54679;SDS011;40578;53.178;5.846;2022-09-09T12:37:37;7.65;;;2.88;;
54679;SDS011;40578;53.178;5.846;2022-09-09T12:40:18;6.05;;;2.38;;
54679;SDS011;40578;53.178;5.846;2022-09-09T12:42:52;7.13;;;2.55;;
54679;SDS011;40578;53.178;5.846;2022-09-09T12:45:21;7.38;;;2.70;;
54679;SDS011;40578;53.178;5.846;2022-09-09T12:47:59;6.80;;;3.00;;
54679;SDS011;40578;53.178;5.846;2022-09-09T12:50:38;5.00;;;2.20;;
54679;SDS011;40578;53.178;5.846;2022-09-09T12:53:12;7.47;;;2.90;;
54679;SDS011;40578;53.178;5.846;2022-09-09T12:58:24;6.50;;;2.72;;
54679;SDS011;40578;53.178;5.846;2022-09-09T13:00:54;9.05;;;2.28;;
54679;SDS011;40578;53.178;5.846;2022-09-09T13:03:23;11.35;;;2.15;;
54679;SDS011;40578;53.178;5.846;2022-09-09T13:05:52;11.20;;;2.70;;
54679;SDS011;40578;53.178;5.846;2022-09-09T13:08:23;8.23;;;2.38;;
54679;SDS011;40578;53.178;5.846;2022-09-09T13:10:53;6.90;;;2.40;;
54679;SDS011;40578;53.178;5.846;2022-09-09T13:13:28;8.32;;;2.60;;
54679;SDS011;40578;53.178;5.846;2022-09-09T13:16:00;10.02;;;2.90;;
54679;SDS011;40578;53.178;5.846;2022-09-09T13:18:28;7.15;;;2.38;;
54679;SDS011;40578;53.178;5.846;2022-09-09T13:20:56;7.18;;;2.47;;
54679;SDS011;40578;53.178;5.846;2022-09-09T13:23:23;5.15;;;1.70;;
54679;SDS011;40578;53.178;5.846;2022-09-09T13:25:56;5.45;;;1.50;;
54679;SDS011;40578;53.178;5.846;2022-09-09T13:28:27;4.35;;;1.50;;
54679;SDS011;40578;53.178;5.846;2022-09-09T13:31:04;6.82;;;1.63;;
54679;SDS011;40578;53.178;5.846;2022-09-09T13:33:36;4.70;;;1.60;;
54679;SDS011;40578;53.178;5.846;2022-09-09T13:36:03;5.18;;;1.67;;
54679;SDS011;40578;53.178;5.846;2022-09-09T13:38:38;4.07;;;1.70;;
54679;SDS011;40578;53.178;5.846;2022-09-09T13:41:20;4.20;;;1.80;;
54679;SDS011;40578;53.178;5.846;2022-09-09T13:43:50;7.25;;;1.67;;
54679;SDS011;40578;53.178;5.846;2022-09-09T13:48:56;5.68;;;2.10;;
54679;SDS011;40578;53.178;5.846;2022-09-09T13:51:30;5.40;;;2.20;;
54679;SDS011;40578;53.178;5.846;2022-09-09T13:53:57;5.93;;;2.70;;
54679;SDS011;40578;53.178;5.846;2022-09-09T13:56:24;5.95;;;2.55;;
54679;SDS011;40578;53.178;5.846;2022-09-09T13:58:49;6.67;;;3.07;;
54679;SDS011;40578;53.178;5.846;2022-09-09T14:01:15;11.33;;;3.60;;
54679;SDS011;40578;53.178;5.846;2022-09-09T14:03:40;10.70;;;3.20;;
54679;SDS011;40578;53.178;5.846;2022-09-09T14:06:06;5.63;;;2.90;;
54679;SDS011;40578;53.178;5.846;2022-09-09T14:08:32;8.90;;;2.60;;
54679;SDS011;40578;53.178;5.846;2022-09-09T14:11:05;6.10;;;2.38;;
54679;SDS011;40578;53.178;5.846;2022-09-09T14:13:33;4.93;;;1.98;;
54679;SDS011;40578;53.178;5.846;2022-09-09T14:15:59;5.03;;;2.07;;
54679;SDS011;40578;53.178;5.846;2022-09-09T14:18:24;5.63;;;1.80;;
54679;SDS011;40578;53.178;5.846;2022-09-09T14:20:50;6.97;;;2.53;;
54679;SDS011;40578;53.178;5.846;2022-09-09T14:23:16;5.60;;;2.23;;
54679;SDS011;40578;53.178;5.846;2022-09-09T14:25:45;4.97;;;2.40;;
54679;SDS011;40578;53.178;5.846;2022-09-09T14:28:12;5.47;;;2.13;;
54679;SDS011;40578;53.178;5.846;2022-09-09T14:30:39;4.53;;;2.03;;
54679;SDS011;40578;53.178;5.846;2022-09-09T14:33:06;4.55;;;2.10;;
54679;SDS011;40578;53.178;5.846;2022-09-09T14:35:33;6.78;;;2.10;;
54679;SDS011;40578;53.178;5.846;2022-09-09T14:37:59;6.47;;;1.80;;
54679;SDS011;40578;53.178;5.846;2022-09-09T14:40:26;4.35;;;2.00;;
54679;SDS011;40578;53.178;5.846;2022-09-09T14:42:52;7.18;;;2.17;;
54679;SDS011;40578;53.178;5.846;2022-09-09T14:45:18;4.40;;;1.63;;
54679;SDS011;40578;53.178;5.846;2022-09-09T14:47:44;4.45;;;1.73;;
54679;SDS011;40578;53.178;5.846;2022-09-09T14:50:10;6.90;;;2.10;;
54679;SDS011;40578;53.178;5.846;2022-09-09T14:52:37;5.50;;;1.83;;
54679;SDS011;40578;53.178;5.846;2022-09-09T14:55:03;5.53;;;2.33;;
54679;SDS011;40578;53.178;5.846;2022-09-09T14:57:29;5.18;;;2.05;;
54679;SDS011;40578;53.178;5.846;2022-09-09T14:59:56;5.03;;;2.00;;
54679;SDS011;40578;53.178;5.846;2022-09-09T15:02:21;5.77;;;2.23;;
54679;SDS011;40578;53.178;5.846;2022-09-09T15:04:47;6.68;;;2.20;;
54679;SDS011;40578;53.178;5.846;2022-09-09T15:07:15;6.15;;;2.08;;
54679;SDS011;40578;53.178;5.846;2022-09-09T15:09:41;7.47;;;2.45;;
54679;SDS011;40578;53.178;5.846;2022-09-09T15:12:07;7.83;;;2.90;;
54679;SDS011;40578;53.178;5.846;2022-09-09T15:14:32;10.87;;;3.53;;
54679;SDS011;40578;53.178;5.846;2022-09-09T15:16:59;12.20;;;3.80;;
54679;SDS011;40578;53.178;5.846;2022-09-09T15:19:24;14.47;;;4.83;;
54679;SDS011;40578;53.178;5.846;2022-09-09T15:21:50;8.30;;;4.97;;
54679;SDS011;40578;53.178;5.846;2022-09-09T15:24:16;10.07;;;5.18;;
54679;SDS011;40578;53.178;5.846;2022-09-09T15:26:42;7.73;;;5.30;;
54679;SDS011;40578;53.178;5.846;2022-09-09T15:29:07;8.67;;;4.70;;
54679;SDS011;40578;53.178;5.846;2022-09-09T15:31:33;8.93;;;4.90;;
54679;SDS011;40578;53.178;5.846;2022-09-09T15:34:00;10.50;;;5.30;;
54679;SDS011;40578;53.178;5.846;2022-09-09T15:38:54;8.82;;;5.60;;
54679;SDS011;40578;53.178;5.846;2022-09-09T15:41:20;9.85;;;5.70;;
54679;SDS011;40578;53.178;5.846;2022-09-09T15:43:48;10.80;;;5.60;;
54679;SDS011;40578;53.178;5.846;2022-09-09T15:49:08;9.63;;;5.93;;
54679;SDS011;40578;53.178;5.846;2022-09-09T15:51:36;10.23;;;5.93;;
54679;SDS011;40578;53.178;5.846;2022-09-09T15:54:03;9.23;;;5.90;;
54679;SDS011;40578;53.178;5.846;2022-09-09T15:56:29;9.48;;;5.70;;
54679;SDS011;40578;53.178;5.846;2022-09-09T16:01:23;7.60;;;5.60;;
54679;SDS011;40578;53.178;5.846;2022-09-09T16:03:49;9.43;;;5.40;;
54679;SDS011;40578;53.178;5.846;2022-09-09T16:06:18;8.52;;;5.35;;
54679;SDS011;40578;53.178;5.846;2022-09-09T16:08:49;6.00;;;4.60;;
54679;SDS011;40578;53.178;5.846;2022-09-09T16:11:20;7.78;;;5.07;;
54679;SDS011;40578;53.178;5.846;2022-09-09T16:13:51;8.55;;;4.18;;
54679;SDS011;40578;53.178;5.846;2022-09-09T16:16:19;6.95;;;4.50;;
54679;SDS011;40578;53.178;5.846;2022-09-09T16:18:53;5.47;;;3.40;;
54679;SDS011;40578;53.178;5.846;2022-09-09T16:23:53;5.78;;;4.07;;
54679;SDS011;40578;53.178;5.846;2022-09-09T16:26:18;6.82;;;3.75;;
54679;SDS011;40578;53.178;5.846;2022-09-09T16:28:44;6.55;;;3.80;;
54679;SDS011;40578;53.178;5.846;2022-09-09T16:33:47;6.45;;;3.58;;
54679;SDS011;40578;53.178;5.846;2022-09-09T16:36:16;7.55;;;3.97;;
54679;SDS011;40578;53.178;5.846;2022-09-09T16:38:43;7.05;;;3.97;;
54679;SDS011;40578;53.178;5.846;2022-09-09T16:41:10;9.70;;;4.28;;
54679;SDS011;40578;53.178;5.846;2022-09-09T16:43:37;5.57;;;3.83;;
54679;SDS011;40578;53.178;5.846;2022-09-09T16:46:03;6.47;;;4.13;;
54679;SDS011;40578;53.178;5.846;2022-09-09T16:48:40;6.40;;;4.10;;
54679;SDS011;40578;53.178;5.846;2022-09-09T16:51:07;7.20;;;4.23;;
54679;SDS011;40578;53.178;5.846;2022-09-09T16:53:36;5.03;;;4.15;;
54679;SDS011;40578;53.178;5.846;2022-09-09T16:56:09;7.27;;;4.50;;
54679;SDS011;40578;53.178;5.846;2022-09-09T16:58:39;6.38;;;4.22;;
54679;SDS011;40578;53.178;5.846;2022-09-09T17:01:05;7.93;;;4.05;;
54679;SDS011;40578;53.178;5.846;2022-09-09T17:03:31;7.53;;;4.55;;
54679;SDS011;40578;53.178;5.846;2022-09-09T17:05:58;7.97;;;4.78;;
54679;SDS011;40578;53.178;5.846;2022-09-09T17:08:27;8.48;;;5.10;;
54679;SDS011;40578;53.178;5.846;2022-09-09T17:10:54;9.02;;;5.28;;
54679;SDS011;40578;53.178;5.846;2022-09-09T17:13:20;6.82;;;5.40;;
54679;SDS011;40578;53.178;5.846;2022-09-09T17:15:46;6.67;;;3.70;;
54679;SDS011;40578;53.178;5.846;2022-09-09T17:18:12;5.67;;;3.03;;
54679;SDS011;40578;53.178;5.846;2022-09-09T17:20:38;5.28;;;2.85;;
54679;SDS011;40578;53.178;5.846;2022-09-09T17:23:06;6.93;;;2.97;;
54679;SDS011;40578;53.178;5.846;2022-09-09T17:25:32;7.72;;;3.30;;